Squaw Point, Colorado
Current Conditions -  °F | °C
As of 6:35 AM on Friday 28 Nov 2014 (Local Time) from KBDG Reporting Station
Clear Clear  
Wind Chill: 23°   Ceiling: Unl
Heat Index: 29°   Visibility: 10mi
Dew Point: 21°   Wind: 6mph
Humidity: 73%   Direction: 330°NNW
Pressure: 30.32"   Gusts: NA
Location:  37.74°N, 108.957°W
Report Text: KBDG 281335Z AUTO 33005KT 10SM CLR M02/M06 A3032 RMK AO1 T10181060
Loading
Personal Weather Stations






























Interactive Weather Map New forecast layout! Learn more

10-Day Weather Forecast

Advertisements
Track Severe Weather on mobile